Time;durP1;ratioP1;P1;durP2;ratioP2;P2;SDS_P1;SDS_P2;PMS_P1;PMS_P2;Temp;Humidity;BMP_temperature;BMP_pressure;BME280_temperature;BME280_humidity;BME280_pressure;Samples;Min_cycle;Max_cycle;Signal;HPM_P1;HPM_P2
2021/03/27 00:00:10;;;;;;;9.87;7.73;;;9.60;81.40;;;;;;5055234;28;20193;-51
2021/03/27 00:02:41;;;;;;;10.10;7.90;;;9.60;81.70;;;;;;5054909;28;20197;-60
2021/03/27 00:05:15;;;;;;;9.87;7.87;;;9.50;81.50;;;;;;5055435;28;20214;-58
2021/03/27 00:08:04;;;;;;;11.93;8.33;;;9.40;82.00;;;;;;5054113;28;20225;-60
2021/03/27 00:10:41;;;;;;;10.87;7.73;;;9.40;82.60;;;;;;5052626;28;20250;-48
2021/03/27 00:13:24;;;;;;;10.83;8.47;;;9.40;82.60;;;;;;5052872;28;20178;-60
2021/03/27 00:16:02;;;;;;;11.30;9.00;;;9.40;82.60;;;;;;5054814;28;20195;-49
2021/03/27 00:18:41;;;;;;;10.80;8.97;;;9.40;83.00;;;;;;5053901;28;20262;-58
2021/03/27 00:21:18;;;;;;;12.57;8.50;;;9.40;83.30;;;;;;5054323;28;20600;-50
2021/03/27 00:24:18;;;;;;;10.73;7.80;;;9.40;83.30;;;;;;5054716;28;20207;-50
2021/03/27 00:26:53;;;;;;;11.87;8.40;;;9.40;83.80;;;;;;5054710;28;20206;-50
2021/03/27 00:29:26;;;;;;;12.97;8.50;;;9.30;84.60;;;;;;5054412;28;20171;-52
2021/03/27 00:32:01;;;;;;;9.90;7.53;;;9.20;84.80;;;;;;5054855;28;20178;-53
2021/03/27 00:34:35;;;;;;;11.20;7.60;;;9.20;84.30;;;;;;5054909;28;20177;-58
2021/03/27 00:37:05;;;;;;;9.50;7.73;;;9.20;84.40;;;;;;5054343;28;20218;-51
2021/03/27 00:40:08;;;;;;;9.00;6.87;;;9.10;84.60;;;;;;5054723;28;20171;-58
2021/03/27 00:42:45;;;;;;;11.57;7.13;;;9.20;84.70;;;;;;5023037;28;20722;-49
2021/03/27 00:45:16;;;;;;;7.83;6.50;;;9.20;84.50;;;;;;5054351;28;20271;-57
2021/03/27 00:47:47;;;;;;;7.90;6.40;;;9.10;84.30;;;;;;5060961;28;20170;-60
2021/03/27 00:50:55;;;;;;;7.67;5.60;;;9.10;85.00;;;;;;5074168;28;20209;-59
2021/03/27 00:53:38;;;;;;;8.40;6.03;;;9.00;84.90;;;;;;5073340;28;20662;-49
2021/03/27 00:56:12;;;;;;;9.37;6.53;;;8.90;85.00;;;;;;5074428;28;20240;-51
2021/03/27 00:58:44;;;;;;;10.00;6.50;;;8.70;86.20;;;;;;5074091;28;20202;-54
2021/03/27 01:01:12;;;;;;;9.83;6.47;;;8.60;86.40;;;;;;5072867;28;20212;-59
2021/03/27 01:03:45;;;;;;;8.23;6.27;;;8.70;86.60;;;;;;5073897;28;20234;-51
2021/03/27 01:06:15;;;;;;;8.53;6.27;;;8.70;86.50;;;;;;5073715;28;20186;-51
2021/03/27 01:08:45;;;;;;;8.70;6.20;;;8.80;86.70;;;;;;5074007;28;20736;-56
2021/03/27 01:11:24;;;;;;;8.57;5.73;;;8.80;86.70;;;;;;5073364;28;20174;-57
2021/03/27 01:13:54;;;;;;;8.40;6.40;;;8.80;86.30;;;;;;5073857;28;20174;-59
2021/03/27 01:16:25;;;;;;;8.13;6.37;;;8.90;86.80;;;;;;5074048;28;20203;-50
2021/03/27 01:19:07;;;;;;;9.13;7.23;;;8.80;86.70;;;;;;5073945;28;20178;-51
2021/03/27 01:21:36;;;;;;;8.20;6.53;;;8.80;86.70;;;;;;5073738;28;20586;-49
2021/03/27 01:24:06;;;;;;;8.90;6.63;;;8.70;87.20;;;;;;5073676;28;20210;-47
2021/03/27 01:26:44;;;;;;;9.47;6.43;;;8.80;87.30;;;;;;5074306;28;20195;-56
2021/03/27 01:29:16;;;;;;;8.87;6.40;;;8.80;87.10;;;;;;5073522;28;20211;-56
2021/03/27 01:31:51;;;;;;;8.77;6.03;;;8.80;87.30;;;;;;5073311;28;20174;-57
2021/03/27 01:34:22;;;;;;;7.20;5.87;;;8.80;87.30;;;;;;5073647;28;20178;-60
2021/03/27 01:37:05;;;;;;;8.77;6.40;;;8.80;87.30;;;;;;5073651;28;20210;-60
2021/03/27 01:39:42;;;;;;;7.97;6.13;;;8.90;87.10;;;;;;5073837;28;20256;-55
2021/03/27 01:42:29;;;;;;;8.20;5.77;;;8.90;87.00;;;;;;5072697;28;20539;-48
2021/03/27 01:45:26;;;;;;;7.90;6.20;;;8.90;87.00;;;;;;5073253;28;20198;-50
2021/03/27 01:48:14;;;;;;;7.93;6.43;;;8.90;87.50;;;;;;5073496;28;20200;-49
2021/03/27 01:50:47;;;;;;;10.10;6.53;;;8.80;87.60;;;;;;5073717;28;20227;-50
2021/03/27 01:53:21;;;;;;;9.27;6.50;;;8.90;88.00;;;;;;5072657;28;20202;-60
2021/03/27 01:56:11;;;;;;;8.63;6.47;;;8.90;88.10;;;;;;5073600;28;20193;-50
2021/03/27 01:58:48;;;;;;;8.07;6.30;;;8.80;88.10;;;;;;5073353;28;20185;-59
2021/03/27 02:01:36;;;;;;;8.43;6.30;;;8.90;88.40;;;;;;5073251;28;20261;-55
2021/03/27 02:04:20;;;;;;;8.40;5.87;;;8.80;88.20;;;;;;5072798;28;20213;-59
2021/03/27 02:07:18;;;;;;;7.30;6.10;;;8.80;89.10;;;;;;5073340;28;20662;-50
2021/03/27 02:10:01;;;;;;;7.63;6.50;;;8.80;89.40;;;;;;5073384;28;20538;-60
2021/03/27 02:12:47;;;;;;;7.73;5.97;;;8.80;89.00;;;;;;5072985;28;20178;-48
2021/03/27 02:15:39;;;;;;;9.07;6.37;;;8.80;89.00;;;;;;5073140;28;20266;-47
2021/03/27 02:18:18;;;;;;;9.60;6.70;;;8.90;89.20;;;;;;5073469;28;20185;-48
2021/03/27 02:21:13;;;;;;;7.83;6.13;;;8.80;89.30;;;;;;5073302;28;20183;-56
2021/03/27 02:23:56;;;;;;;8.87;5.90;;;8.80;89.30;;;;;;5072698;28;20206;-54
2021/03/27 02:26:52;;;;;;;7.07;5.70;;;8.90;89.30;;;;;;5073377;28;20193;-60
2021/03/27 02:29:31;;;;;;;8.73;5.60;;;8.90;89.10;;;;;;5073187;28;20200;-48
2021/03/27 02:32:36;;;;;;;8.50;5.73;;;8.90;89.00;;;;;;5072915;28;20189;-56
2021/03/27 02:35:13;;;;;;;8.67;6.40;;;8.90;89.00;;;;;;5072691;28;20193;-49
2021/03/27 02:38:05;;;;;;;9.60;8.00;;;8.80;89.50;;;;;;5073030;28;20198;-49
2021/03/27 02:40:38;;;;;;;10.07;7.87;;;8.90;89.80;;;;;;5073083;28;20266;-58
2021/03/27 02:43:28;;;;;;;10.53;8.17;;;8.90;90.00;;;;;;5072494;28;20174;-49
2021/03/27 02:46:09;;;;;;;9.80;7.77;;;8.80;89.90;;;;;;5072792;28;20191;-49
2021/03/27 02:48:58;;;;;;;9.90;7.43;;;8.80;90.00;;;;;;5073182;28;20571;-59
2021/03/27 02:52:07;;;;;;;10.80;7.80;;;8.80;90.10;;;;;;5072876;28;20178;-48
2021/03/27 02:54:56;;;;;;;9.13;6.57;;;8.80;90.10;;;;;;5030417;28;20222;-58
2021/03/27 02:57:28;;;;;;;9.23;6.73;;;8.80;90.00;;;;;;5031059;28;20184;-60
2021/03/27 03:00:27;;;;;;;7.47;5.70;;;8.80;90.10;;;;;;5030996;28;20282;-58
2021/03/27 03:02:55;;;;;;;9.10;6.47;;;8.30;92.70;;;;;;4990848;28;20249;-49
2021/03/27 03:05:40;;;;;;;8.90;6.57;;;7.70;95.10;;;;;;5030246;28;20207;-59
2021/03/27 03:08:31;;;;;;;8.20;7.00;;;7.50;96.70;;;;;;5031049;28;20739;-47
2021/03/27 03:11:14;;;;;;;8.77;6.47;;;7.50;97.70;;;;;;5033810;28;20271;-56
2021/03/27 03:13:58;;;;;;;8.37;6.30;;;7.60;98.00;;;;;;5034131;28;20179;-52
2021/03/27 03:16:28;;;;;;;11.00;6.70;;;7.80;97.50;;;;;;5033789;28;20226;-59
2021/03/27 03:19:10;;;;;;;9.67;6.50;;;9.70;98.10;;;;;;5034286;28;20221;-48
2021/03/27 03:21:59;;;;;;;8.93;6.60;;;8.00;96.80;;;;;;5034097;28;20180;-47
2021/03/27 03:24:50;;;;;;;8.50;7.03;;;8.10;96.70;;;;;;5034410;28;20210;-48
2021/03/27 03:27:53;;;;;;;10.70;7.60;;;8.20;96.60;;;;;;5033822;28;20178;-48
2021/03/27 03:30:27;;;;;;;11.43;8.53;;;8.20;96.40;;;;;;5076169;28;20171;-58
2021/03/27 03:33:08;;;;;;;10.37;7.63;;;8.30;96.20;;;;;;5075644;28;20169;-60
2021/03/27 03:35:39;;;;;;;11.57;7.67;;;8.30;96.20;;;;;;5074241;28;20672;-49
2021/03/27 03:38:38;;;;;;;10.17;7.87;;;8.40;95.90;;;;;;5075943;28;20194;-59
2021/03/27 03:41:24;;;;;;;13.27;9.07;;;8.50;95.80;;;;;;5075708;28;20205;-60
2021/03/27 03:43:59;;;;;;;9.53;7.60;;;8.40;95.70;;;;;;5075634;28;20550;-58
2021/03/27 03:46:49;;;;;;;9.63;6.20;;;8.40;95.60;;;;;;5075384;28;20575;-56
2021/03/27 03:49:26;;;;;;;8.67;6.80;;;8.40;94.90;;;;;;5075591;28;20292;-54
2021/03/27 03:52:03;;;;;;;10.23;6.57;;;8.40;94.80;;;;;;5075613;28;20170;-56
2021/03/27 03:54:58;;;;;;;7.37;6.10;;;8.30;94.80;;;;;;5075663;28;20185;-48
2021/03/27 03:57:29;;;;;;;8.37;6.50;;;8.30;95.00;;;;;;5075335;28;20209;-59
2021/03/27 04:00:07;;;;;;;9.47;7.10;;;8.30;95.20;;;;;;5075707;28;20205;-47
2021/03/27 04:02:43;;;;;;;8.57;6.70;;;8.30;95.20;;;;;;5075032;28;20565;-58
2021/03/27 04:05:32;;;;;;;9.17;6.90;;;8.30;95.20;;;;;;5075067;28;20244;-54
2021/03/27 04:08:09;;;;;;;10.47;8.13;;;8.40;95.10;;;;;;5075014;28;20642;-57
2021/03/27 04:10:37;;;;;;;12.60;8.03;;;8.30;95.20;;;;;;5075237;28;20163;-61
2021/03/27 04:13:20;;;;;;;9.90;7.70;;;8.20;95.30;;;;;;5074782;28;20194;-59
2021/03/27 04:15:56;;;;;;;10.57;8.20;;;8.20;95.70;;;;;;5075099;28;20190;-49
2021/03/27 04:18:28;;;;;;;11.77;8.30;;;8.20;96.00;;;;;;5074692;28;20166;-58
2021/03/27 04:21:08;;;;;;;10.00;7.30;;;8.20;96.40;;;;;;5074595;28;20163;-59
2021/03/27 04:23:55;;;;;;;9.93;7.60;;;8.20;96.40;;;;;;5074956;28;20221;-47
2021/03/27 04:26:23;;;;;;;10.10;7.40;;;8.30;96.30;;;;;;5074874;28;20197;-52
2021/03/27 04:29:07;;;;;;;10.57;7.57;;;8.40;96.10;;;;;;5074436;28;20235;-58
2021/03/27 04:31:42;;;;;;;11.40;7.93;;;8.50;96.10;;;;;;5073486;28;20171;-59
2021/03/27 04:34:29;;;;;;;10.07;6.87;;;8.60;95.90;;;;;;5074636;28;20220;-49
2021/03/27 04:37:09;;;;;;;9.60;6.87;;;8.60;95.80;;;;;;5074657;28;20202;-52
2021/03/27 04:39:57;;;;;;;10.27;6.70;;;8.60;95.80;;;;;;5074494;28;20174;-59
2021/03/27 04:42:34;;;;;;;7.43;6.17;;;8.50;95.90;;;;;;5074331;28;20588;-49
2021/03/27 04:45:08;;;;;;;8.13;6.63;;;8.50;96.10;;;;;;5074508;28;20308;-48
2021/03/27 04:47:41;;;;;;;9.53;6.40;;;8.60;96.40;;;;;;5074313;28;20183;-59
2021/03/27 04:50:44;;;;;;;8.10;6.37;;;8.60;96.20;;;;;;5074562;28;20175;-48
2021/03/27 04:53:31;;;;;;;10.03;6.97;;;8.70;96.10;;;;;;5073911;28;20166;-58
2021/03/27 04:56:32;;;;;;;8.83;6.60;;;8.70;95.80;;;;;;5075045;28;20191;-48
2021/03/27 04:59:07;;;;;;;9.13;6.47;;;8.80;95.60;;;;;;5073893;28;20705;-49
2021/03/27 05:01:55;;;;;;;9.43;6.10;;;8.90;95.50;;;;;;5073084;28;20174;-59
2021/03/27 05:04:24;;;;;;;6.70;5.87;;;9.00;95.40;;;;;;5074142;28;20229;-49
2021/03/27 05:07:11;;;;;;;7.27;5.70;;;8.90;95.30;;;;;;5074259;28;20719;-60
2021/03/27 05:09:57;;;;;;;9.40;6.70;;;8.80;95.80;;;;;;5073975;28;20703;-49
2021/03/27 05:12:33;;;;;;;8.93;6.23;;;8.50;97.20;;;;;;5073790;28;20171;-59
2021/03/27 05:15:23;;;;;;;9.70;7.00;;;8.10;98.30;;;;;;5074012;28;20251;-51
2021/03/27 05:17:54;;;;;;;7.93;6.83;;;7.60;99.90;;;;;;5074166;28;20177;-47
2021/03/27 05:20:24;;;;;;;9.33;6.67;;;7.40;99.90;;;;;;5072268;28;20170;-48
2021/03/27 05:23:01;;;;;;;9.90;7.30;;;7.40;99.90;;;;;;5073925;28;20263;-54
2021/03/27 05:25:46;;;;;;;9.03;6.10;;;7.40;99.90;;;;;;5073872;28;20275;-59
2021/03/27 05:28:23;;;;;;;9.20;7.13;;;7.40;99.90;;;;;;5069488;28;20198;-48
2021/03/27 05:31:10;;;;;;;8.77;7.13;;;7.50;99.90;;;;;;5062162;28;20220;-57
2021/03/27 05:33:47;;;;;;;9.77;7.60;;;7.60;99.90;;;;;;5053053;28;20208;-60
2021/03/27 05:36:25;;;;;;;8.50;7.27;;;7.60;99.90;;;;;;5053369;28;20678;-57
2021/03/27 05:39:17;;;;;;;9.10;6.77;;;7.60;99.90;;;;;;5053630;28;20185;-47
2021/03/27 05:42:02;;;;;;;9.13;6.80;;;7.60;99.90;;;;;;5060501;28;20175;-59
2021/03/27 05:44:59;;;;;;;11.37;7.33;;;7.80;99.90;;;;;;5073843;28;20201;-56
2021/03/27 05:47:27;;;;;;;9.53;6.60;;;7.90;99.90;;;;;;5073509;28;20516;-48
2021/03/27 05:50:30;;;;;;;11.67;7.30;;;8.00;99.90;;;;;;5075190;28;20177;-51
2021/03/27 05:52:59;;;;;;;10.00;7.00;;;8.20;99.90;;;;;;5089198;28;20264;-49
2021/03/27 05:55:49;;;;;;;8.30;6.47;;;8.20;99.90;;;;;;5087925;28;20251;-53
2021/03/27 05:58:33;;;;;;;8.43;6.20;;;8.40;99.90;;;;;;5062935;28;20273;-52
2021/03/27 06:01:13;;;;;;;10.53;7.33;;;8.40;99.90;;;;;;5074217;28;20649;-48
2021/03/27 06:04:18;;;;;;;8.23;6.30;;;8.50;99.90;;;;;;5076037;28;20209;-48
2021/03/27 06:07:21;;;;;;;8.57;6.17;;;8.60;99.90;;;;;;5089987;28;20194;-59
2021/03/27 06:10:24;;;;;;;8.00;6.47;;;8.90;99.90;;;;;;5085191;28;20173;-49
2021/03/27 06:13:07;;;;;;;9.13;6.10;;;9.00;99.90;;;;;;5085785;28;20219;-48
2021/03/27 06:16:10;;;;;;;6.73;5.77;;;9.00;99.90;;;;;;5081582;28;20618;-54
2021/03/27 06:19:04;;;;;;;8.03;6.87;;;9.20;99.90;;;;;;5059978;28;20206;-58
2021/03/27 06:21:51;;;;;;;9.00;6.90;;;9.30;99.90;;;;;;5063298;28;20259;-50
2021/03/27 06:24:58;;;;;;;9.20;6.70;;;9.40;99.70;;;;;;5053700;28;20210;-53
2021/03/27 06:27:49;;;;;;;11.93;6.90;;;9.50;99.90;;;;;;5051012;28;20191;-59
2021/03/27 06:30:20;;;;;;;9.93;6.40;;;9.40;99.90;;;;;;5057995;28;20257;-56
2021/03/27 06:33:11;;;;;;;8.20;6.47;;;9.40;99.90;;;;;;5071156;28;20166;-53
2021/03/27 06:35:58;;;;;;;8.53;6.03;;;9.20;99.90;;;;;;5064202;28;20549;-57
2021/03/27 06:38:59;;;;;;;9.53;6.80;;;9.30;99.90;;;;;;5061802;28;20265;-49
2021/03/27 06:41:30;;;;;;;7.90;6.47;;;9.30;99.90;;;;;;5052654;28;20264;-49
2021/03/27 06:43:59;;;;;;;8.33;6.40;;;9.40;99.90;;;;;;5054651;28;20202;-61
2021/03/27 06:47:16;;;;;;;7.90;6.20;;;9.50;99.90;;;;;;5068846;28;20190;-48
2021/03/27 06:50:05;;;;;;;9.50;6.67;;;9.70;99.90;;;;;;5019765;28;20183;-48
2021/03/27 06:52:44;;;;;;;9.47;6.57;;;9.90;99.90;;;;;;5018040;28;20177;-58
2021/03/27 06:55:43;;;;;;;7.87;6.33;;;10.00;99.90;;;;;;5044592;28;20199;-52
2021/03/27 06:58:39;;;;;;;8.80;6.33;;;10.10;98.60;;;;;;5059433;28;20197;-50
2021/03/27 07:01:29;;;;;;;9.17;6.67;;;10.20;98.30;;;;;;5074337;28;20167;-49
2021/03/27 07:04:04;;;;;;;8.37;6.27;;;10.20;98.10;;;;;;5055408;28;20202;-50
2021/03/27 07:06:38;;;;;;;9.73;6.80;;;10.20;97.80;;;;;;5057611;28;20274;-51
2021/03/27 07:09:23;;;;;;;7.90;6.17;;;10.10;97.70;;;;;;5065457;28;20226;-48
2021/03/27 07:12:06;;;;;;;8.90;6.20;;;10.10;97.80;;;;;;5057757;28;20172;-49
2021/03/27 07:15:07;;;;;;;7.60;5.60;;;10.20;97.80;;;;;;5056089;28;20175;-48
2021/03/27 07:17:55;;;;;;;8.23;6.13;;;10.20;97.60;;;;;;5056772;28;20630;-48
2021/03/27 07:20:46;;;;;;;9.63;6.30;;;10.20;97.30;;;;;;5060268;28;20199;-49
2021/03/27 07:23:55;;;;;;;8.10;6.60;;;10.10;97.40;;;;;;5071045;28;20174;-58
2021/03/27 07:26:42;;;;;;;10.17;6.40;;;10.10;97.40;;;;;;5051364;28;20207;-48
2021/03/27 07:29:32;;;;;;;7.43;5.97;;;10.10;97.20;;;;;;5056121;28;20182;-49
2021/03/27 07:32:29;;;;;;;7.67;6.13;;;10.10;97.20;;;;;;5055976;28;20231;-59
2021/03/27 07:35:21;;;;;;;9.70;6.17;;;10.10;97.40;;;;;;5055812;28;20171;-60
2021/03/27 07:38:01;;;;;;;8.03;6.57;;;10.10;97.80;;;;;;5055693;28;20270;-50
2021/03/27 07:40:50;;;;;;;8.60;6.40;;;10.20;98.50;;;;;;5056394;28;20575;-48
2021/03/27 07:43:47;;;;;;;8.33;6.83;;;10.20;99.30;;;;;;5047873;28;20195;-57
2021/03/27 07:46:24;;;;;;;8.33;6.60;;;10.30;99.90;;;;;;5066548;28;20232;-48
2021/03/27 07:49:21;;;;;;;7.80;6.70;;;10.30;99.90;;;;;;5065472;28;20183;-55
2021/03/27 07:52:06;;;;;;;9.13;7.00;;;10.30;99.90;;;;;;5059419;28;20222;-56
2021/03/27 07:55:09;;;;;;;9.27;6.80;;;10.30;99.90;;;;;;5074723;28;20190;-46
2021/03/27 07:58:13;;;;;;;12.23;8.50;;;10.40;99.90;;;;;;5059940;28;20589;-57
2021/03/27 08:01:00;;;;;;;9.80;8.30;;;10.30;99.90;;;;;;5060000;28;20213;-56
2021/03/27 08:03:40;;;;;;;9.67;8.03;;;10.00;99.90;;;;;;5075156;28;20202;-47
2021/03/27 08:06:20;;;;;;;9.83;8.37;;;9.80;99.90;;;;;;5073965;28;20713;-58
2021/03/27 08:08:49;;;;;;;8.93;7.10;;;9.60;99.90;;;;;;5075281;28;20683;-47
2021/03/27 08:11:34;;;;;;;10.10;7.87;;;9.50;99.90;;;;;;5072808;28;20249;-47
2021/03/27 08:14:07;;;;;;;9.60;7.90;;;9.50;99.90;;;;;;5032678;28;20200;-50
2021/03/27 08:16:45;;;;;;;10.23;8.13;;;9.50;99.90;;;;;;5018985;28;20256;-49
2021/03/27 08:20:00;;;;;;;12.47;7.67;;;9.60;99.90;;;;;;5019798;28;20196;-58
2021/03/27 08:22:59;;;;;;;9.60;7.33;;;9.70;99.90;;;;;;5010001;28;20751;-54
2021/03/27 08:25:57;;;;;;;8.57;7.63;;;9.70;99.90;;;;;;5029686;28;20362;-58
2021/03/27 08:28:40;;;;;;;8.67;6.97;;;9.70;99.90;;;;;;5024672;28;20180;-49
2021/03/27 08:31:27;;;;;;;9.53;8.40;;;9.70;99.90;;;;;;5030033;28;20233;-48
2021/03/27 08:33:58;;;;;;;11.03;8.53;;;9.60;99.90;;;;;;5028701;28;20258;-57
2021/03/27 08:36:52;;;;;;;9.90;8.23;;;9.50;99.90;;;;;;5031186;28;20758;-49
2021/03/27 08:39:36;;;;;;;8.53;7.63;;;9.40;99.90;;;;;;5014306;28;20193;-52
2021/03/27 08:42:13;;;;;;;11.17;9.47;;;9.40;99.90;;;;;;5012037;28;20180;-49
2021/03/27 08:44:59;;;;;;;10.87;8.77;;;9.30;99.90;;;;;;5016900;28;20258;-59
2021/03/27 08:47:44;;;;;;;10.73;8.10;;;9.30;99.90;;;;;;5015578;28;20569;-49
2021/03/27 08:50:47;;;;;;;11.17;9.00;;;9.20;99.90;;;;;;5034736;28;20199;-48
2021/03/27 08:53:40;;;;;;;9.80;8.37;;;9.30;99.90;;;;;;5055151;28;20179;-60
2021/03/27 08:56:14;;;;;;;11.43;9.33;;;9.30;99.90;;;;;;5057644;28;20198;-51
2021/03/27 08:59:03;;;;;;;9.47;8.17;;;9.40;99.90;;;;;;5074252;28;20518;-51
2021/03/27 09:01:46;;;;;;;10.83;8.33;;;9.50;99.90;;;;;;5072414;28;20174;-60
2021/03/27 09:04:39;;;;;;;9.03;7.20;;;9.60;99.90;;;;;;5067348;28;20203;-58
2021/03/27 09:07:24;;;;;;;8.43;7.23;;;9.40;99.90;;;;;;5052866;28;20539;-61
2021/03/27 09:10:01;;;;;;;8.90;7.37;;;9.00;99.90;;;;;;5055615;28;20273;-60
2021/03/27 09:12:57;;;;;;;8.37;7.27;;;8.80;99.90;;;;;;5054061;28;20209;-51
2021/03/27 09:15:42;;;;;;;7.53;6.80;;;8.60;99.90;;;;;;5070145;28;20198;-49
2021/03/27 09:18:21;;;;;;;7.10;5.67;;;8.30;99.90;;;;;;5072860;28;20204;-58
2021/03/27 09:21:06;;;;;;;6.07;4.37;;;8.30;99.90;;;;;;5065442;28;20249;-49
2021/03/27 09:23:37;;;;;;;5.40;3.47;;;8.20;99.90;;;;;;5053800;28;20199;-59
2021/03/27 09:26:19;;;;;;;3.30;2.80;;;8.20;99.90;;;;;;5070589;28;20194;-49
2021/03/27 09:29:00;;;;;;;3.47;2.83;;;8.10;99.90;;;;;;5073652;28;20165;-56
2021/03/27 09:32:08;;;;;;;4.17;2.70;;;8.00;99.90;;;;;;5062124;28;20714;-59
2021/03/27 09:34:50;;;;;;;4.13;1.90;;;7.90;99.90;;;;;;5064216;28;20191;-49
2021/03/27 09:37:39;;;;;;;3.27;1.60;;;7.80;99.90;;;;;;5059684;28;20673;-53
2021/03/27 09:40:23;;;;;;;1.40;1.30;;;7.90;99.90;;;;;;5054881;28;20178;-49
2021/03/27 09:43:26;;;;;;;2.30;1.50;;;8.10;99.90;;;;;;5059540;28;20232;-58
2021/03/27 09:46:00;;;;;;;1.63;1.30;;;8.20;99.90;;;;;;5062579;28;20645;-51
2021/03/27 09:48:48;;;;;;;1.30;1.20;;;8.40;99.90;;;;;;5063133;28;20241;-57
2021/03/27 09:51:31;;;;;;;1.40;1.30;;;8.20;99.90;;;;;;5060054;28;20277;-52
2021/03/27 09:54:02;;;;;;;1.70;1.10;;;8.20;99.90;;;;;;5062525;28;20171;-49
2021/03/27 09:56:37;;;;;;;2.60;1.67;;;8.20;99.90;;;;;;5061313;28;20256;-50
2021/03/27 09:59:27;;;;;;;1.47;1.37;;;8.20;99.90;;;;;;5060259;28;20538;-59
2021/03/27 10:01:54;;;;;;;1.70;1.20;;;8.10;99.90;;;;;;5061902;28;20635;-54
2021/03/27 10:04:45;;;;;;;1.90;1.70;;;8.10;99.90;;;;;;5061552;28;20613;-60
2021/03/27 10:07:28;;;;;;;2.50;1.50;;;8.10;99.90;;;;;;5063352;28;20260;-58
2021/03/27 10:10:19;;;;;;;1.40;1.20;;;7.90;99.90;;;;;;5063681;28;20185;-55
2021/03/27 10:13:04;;;;;;;2.50;1.10;;;8.00;99.90;;;;;;5062960;28;20175;-49
2021/03/27 10:15:39;;;;;;;1.90;1.30;;;8.00;99.90;;;;;;5062244;28;20290;-50
2021/03/27 10:18:17;;;;;;;1.10;1.00;;;8.00;99.90;;;;;;5062607;28;20635;-55
2021/03/27 10:20:52;;;;;;;2.00;1.57;;;8.10;99.90;;;;;;5065633;28;20639;-49
2021/03/27 10:24:07;;;;;;;1.60;1.50;;;8.20;99.90;;;;;;5065879;28;20690;-55
2021/03/27 10:26:42;;;;;;;1.63;1.30;;;8.30;99.90;;;;;;5063057;28;20260;-57
2021/03/27 10:29:36;;;;;;;3.00;1.50;;;8.50;99.90;;;;;;5064381;28;20178;-50
2021/03/27 10:32:21;;;;;;;1.97;1.73;;;8.60;99.90;;;;;;5063873;28;20182;-59
2021/03/27 10:35:17;;;;;;;1.93;1.40;;;8.70;99.90;;;;;;5064438;28;20520;-55
2021/03/27 10:38:08;;;;;;;2.47;1.63;;;8.70;99.90;;;;;;5059134;28;20229;-52
2021/03/27 10:40:38;;;;;;;1.60;1.50;;;8.70;99.90;;;;;;5071023;28;20638;-49
2021/03/27 10:43:36;;;;;;;1.90;1.70;;;8.70;99.90;;;;;;5063748;28;20199;-49
2021/03/27 10:46:22;;;;;;;1.80;1.43;;;8.50;99.90;;;;;;5065815;28;20660;-54
2021/03/27 10:49:08;;;;;;;2.20;1.87;;;8.40;99.90;;;;;;5066582;28;20538;-54
2021/03/27 10:52:01;;;;;;;1.33;1.23;;;8.40;99.90;;;;;;5066659;28;20174;-62
2021/03/27 10:55:11;;;;;;;1.40;1.30;;;8.40;99.90;;;;;;5063403;28;20899;-52
2021/03/27 10:58:08;;;;;;;3.27;1.67;;;8.50;99.90;;;;;;5066962;28;20179;-52
2021/03/27 11:00:55;;;;;;;1.50;1.40;;;8.60;99.90;;;;;;5067009;28;20188;-58
2021/03/27 11:03:51;;;;;;;1.40;1.30;;;8.70;99.90;;;;;;5066762;28;20174;-56
2021/03/27 11:06:38;;;;;;;2.20;1.50;;;8.80;99.90;;;;;;5064056;28;20186;-47
2021/03/27 11:09:26;;;;;;;4.30;3.40;;;8.90;99.90;;;;;;5064258;28;20250;-54
2021/03/27 11:12:15;;;;;;;1.40;1.30;;;9.00;99.90;;;;;;5056429;28;20176;-60
2021/03/27 11:14:59;;;;;;;1.50;1.40;;;9.10;99.90;;;;;;5071026;28;20193;-50
2021/03/27 11:17:51;;;;;;;1.40;1.30;;;9.10;99.90;;;;;;5076128;28;20171;-53
2021/03/27 11:20:40;;;;;;;1.17;1.10;;;9.20;99.90;;;;;;5076353;28;20171;-56
2021/03/27 11:23:09;;;;;;;1.57;1.30;;;9.30;99.90;;;;;;5081203;28;20177;-54
2021/03/27 11:26:01;;;;;;;1.30;1.20;;;9.30;99.90;;;;;;5076178;28;20596;-49
2021/03/27 11:28:38;;;;;;;1.50;1.40;;;9.50;99.90;;;;;;5076040;28;20174;-49
2021/03/27 11:31:09;;;;;;;1.23;1.17;;;9.70;99.90;;;;;;5072376;28;20233;-50
2021/03/27 11:33:56;;;;;;;3.37;1.57;;;9.80;99.90;;;;;;5068600;28;20654;-49
2021/03/27 11:36:39;;;;;;;1.30;1.20;;;9.90;99.90;;;;;;5064320;28;20294;-49
2021/03/27 11:39:32;;;;;;;1.10;1.10;;;10.00;99.90;;;;;;5056000;28;20175;-48
2021/03/27 11:42:22;;;;;;;1.50;1.23;;;10.10;99.90;;;;;;5055570;28;20155;-49
2021/03/27 11:45:08;;;;;;;1.20;1.10;;;10.20;99.90;;;;;;5056141;28;20282;-59
2021/03/27 11:47:44;;;;;;;1.80;1.30;;;10.40;99.90;;;;;;5055477;28;20176;-56
2021/03/27 11:50:33;;;;;;;1.40;1.30;;;10.50;99.90;;;;;;5079065;28;20176;-50
2021/03/27 11:53:12;;;;;;;1.50;1.40;;;10.50;99.90;;;;;;5041400;28;20527;-59
2021/03/27 11:55:55;;;;;;;1.10;1.00;;;10.50;99.90;;;;;;5066705;28;20687;-50
2021/03/27 11:58:31;;;;;;;1.50;1.40;;;10.40;99.90;;;;;;5060940;28;20202;-49
2021/03/27 12:01:12;;;;;;;1.33;1.23;;;10.30;99.90;;;;;;5054992;28;20249;-57
2021/03/27 12:03:49;;;;;;;2.57;1.33;;;10.30;99.90;;;;;;5056234;28;20289;-58
2021/03/27 12:06:34;;;;;;;2.07;1.10;;;10.40;99.90;;;;;;5068944;28;20202;-56
2021/03/27 12:09:08;;;;;;;1.10;1.00;;;10.50;99.90;;;;;;5072322;28;20232;-51
2021/03/27 12:11:52;;;;;;;1.40;1.30;;;10.40;99.90;;;;;;5073424;28;20165;-52
2021/03/27 12:14:41;;;;;;;2.00;1.33;;;10.40;99.90;;;;;;5070510;28;20545;-51
2021/03/27 12:17:35;;;;;;;1.53;1.23;;;10.60;99.90;;;;;;5055284;28;20736;-56
2021/03/27 12:20:23;;;;;;;1.73;1.33;;;11.00;99.90;;;;;;5060511;28;20170;-61
2021/03/27 12:23:19;;;;;;;1.50;1.33;;;11.30;99.90;;;;;;5070352;28;20178;-50
2021/03/27 12:26:13;;;;;;;2.20;1.20;;;11.30;99.90;;;;;;5054381;28;20217;-54
2021/03/27 12:29:01;;;;;;;1.17;1.00;;;11.10;99.90;;;;;;5057521;28;20255;-56
2021/03/27 12:31:53;;;;;;;1.03;1.03;;;11.40;99.90;;;;;;5066474;28;20166;-58
2021/03/27 12:34:30;;;;;;;1.33;1.00;;;12.00;99.90;;;;;;5073687;28;20236;-54
2021/03/27 12:37:22;;;;;;;1.27;1.17;;;12.10;99.90;;;;;;5060947;28;20215;-51
2021/03/27 12:40:14;;;;;;;1.10;1.00;;;11.90;99.90;;;;;;5053887;28;20163;-48
2021/03/27 12:42:47;;;;;;;1.00;1.00;;;11.90;99.90;;;;;;5054100;28;20191;-48
2021/03/27 12:45:29;;;;;;;2.17;1.30;;;11.70;99.90;;;;;;5058044;28;20277;-59
2021/03/27 12:48:14;;;;;;;1.23;1.07;;;11.40;99.90;;;;;;5072635;28;20185;-60
2021/03/27 12:51:05;;;;;;;1.27;1.10;;;11.30;99.90;;;;;;5074686;28;20268;-60
2021/03/27 12:53:52;;;;;;;2.50;1.10;;;11.00;99.90;;;;;;5074709;28;20250;-50
2021/03/27 12:56:35;;;;;;;1.53;1.40;;;10.80;99.90;;;;;;5074210;28;20244;-59
2021/03/27 12:59:44;;;;;;;2.13;1.30;;;10.60;99.90;;;;;;5074326;28;20241;-58
2021/03/27 13:02:45;;;;;;;1.07;1.00;;;10.50;99.90;;;;;;5050440;28;20190;-48
2021/03/27 13:05:33;;;;;;;1.17;1.10;;;10.30;99.90;;;;;;5058339;28;20253;-50
2021/03/27 13:08:34;;;;;;;3.23;1.20;;;10.30;99.90;;;;;;5069206;28;20202;-61
2021/03/27 13:11:24;;;;;;;1.30;1.20;;;10.40;99.90;;;;;;5072909;28;20261;-59
2021/03/27 13:13:53;;;;;;;2.50;1.30;;;10.60;99.90;;;;;;5074340;28;20167;-59
2021/03/27 13:16:22;;;;;;;1.10;1.00;;;10.50;99.90;;;;;;5074452;28;20225;-60
2021/03/27 13:19:07;;;;;;;1.20;1.10;;;10.50;99.90;;;;;;5074608;28;20507;-49
2021/03/27 13:21:57;;;;;;;0.90;0.90;;;10.50;99.90;;;;;;5074285;28;20185;-61
2021/03/27 13:24:33;;;;;;;1.83;1.00;;;10.40;99.90;;;;;;5073883;28;20218;-49
2021/03/27 13:27:28;;;;;;;1.40;1.10;;;10.40;99.90;;;;;;5074045;28;20247;-57
2021/03/27 13:30:10;;;;;;;1.20;1.10;;;10.40;99.90;;;;;;5073308;28;20634;-58
2021/03/27 13:32:37;;;;;;;1.30;1.20;;;10.40;99.90;;;;;;5073798;28;20289;-49
2021/03/27 13:35:16;;;;;;;1.00;1.00;;;10.50;99.90;;;;;;5074150;28;20175;-49
2021/03/27 13:37:55;;;;;;;1.20;1.10;;;10.50;99.90;;;;;;5073511;28;20292;-60
2021/03/27 13:40:26;;;;;;;2.47;0.90;;;10.60;99.90;;;;;;5074000;28;20224;-61
2021/03/27 13:43:20;;;;;;;1.67;1.30;;;10.70;99.90;;;;;;5073346;28;20174;-55
2021/03/27 13:46:10;;;;;;;1.33;1.10;;;10.60;99.90;;;;;;5074099;28;20206;-50
2021/03/27 13:48:47;;;;;;;3.23;1.13;;;10.50;99.90;;;;;;5073965;28;20163;-60
2021/03/27 13:51:13;;;;;;;2.97;1.20;;;10.50;99.90;;;;;;5073458;28;20253;-59
2021/03/27 13:54:28;;;;;;;1.10;1.00;;;10.50;99.40;;;;;;5073155;28;20213;-60
2021/03/27 13:57:00;;;;;;;1.50;1.00;;;10.50;99.90;;;;;;5012406;28;20230;-60
2021/03/27 13:59:44;;;;;;;1.30;1.20;;;10.50;99.90;;;;;;5073702;28;20181;-60
2021/03/27 14:02:22;;;;;;;1.13;1.03;;;10.60;99.90;;;;;;5073749;28;20167;-60
2021/03/27 14:05:04;;;;;;;2.07;1.20;;;10.70;99.90;;;;;;5074146;28;20194;-49
2021/03/27 14:07:41;;;;;;;0.90;0.90;;;10.70;99.90;;;;;;5073668;28;20627;-51
2021/03/27 14:10:16;;;;;;;1.53;0.90;;;10.70;99.50;;;;;;5074017;28;20173;-60
2021/03/27 14:12:56;;;;;;;2.23;1.00;;;10.80;99.90;;;;;;5073662;28;20253;-49
2021/03/27 14:15:48;;;;;;;1.80;1.13;;;10.80;99.20;;;;;;5074215;28;20206;-61
2021/03/27 14:18:39;;;;;;;1.10;1.00;;;10.80;99.50;;;;;;5073542;28;20221;-53
2021/03/27 14:21:39;;;;;;;1.30;1.20;;;10.80;99.90;;;;;;5073517;28;20162;-60